sensor_id;sensor_type;location;lat;lon;timestamp;P1;durP1;ratioP1;P2;durP2;ratioP2
45764;SDS011;31474;45.332;10.230;2023-07-02T00:01:22;37.92;;;29.55;;
45764;SDS011;31474;45.332;10.230;2023-07-02T00:03:48;38.15;;;30.70;;
45764;SDS011;31474;45.332;10.230;2023-07-02T00:06:13;34.80;;;27.85;;
45764;SDS011;31474;45.332;10.230;2023-07-02T00:08:39;33.40;;;27.23;;
45764;SDS011;31474;45.332;10.230;2023-07-02T00:11:05;32.58;;;25.65;;
45764;SDS011;31474;45.332;10.230;2023-07-02T00:13:31;31.60;;;26.20;;
45764;SDS011;31474;45.332;10.230;2023-07-02T00:15:57;29.88;;;23.85;;
45764;SDS011;31474;45.332;10.230;2023-07-02T00:18:23;32.58;;;24.85;;
45764;SDS011;31474;45.332;10.230;2023-07-02T00:20:58;29.90;;;24.65;;
45764;SDS011;31474;45.332;10.230;2023-07-02T00:23:30;32.50;;;26.92;;
45764;SDS011;31474;45.332;10.230;2023-07-02T00:25:58;32.65;;;26.00;;
45764;SDS011;31474;45.332;10.230;2023-07-02T00:28:24;26.60;;;23.70;;
45764;SDS011;31474;45.332;10.230;2023-07-02T00:30:49;30.25;;;24.73;;
45764;SDS011;31474;45.332;10.230;2023-07-02T00:33:15;34.67;;;26.02;;
45764;SDS011;31474;45.332;10.230;2023-07-02T00:35:41;35.38;;;26.48;;
45764;SDS011;31474;45.332;10.230;2023-07-02T00:38:07;32.88;;;25.45;;
45764;SDS011;31474;45.332;10.230;2023-07-02T00:40:32;33.13;;;26.13;;
45764;SDS011;31474;45.332;10.230;2023-07-02T00:42:58;32.20;;;25.70;;
45764;SDS011;31474;45.332;10.230;2023-07-02T00:45:24;35.70;;;26.80;;
45764;SDS011;31474;45.332;10.230;2023-07-02T00:47:53;31.42;;;25.15;;
45764;SDS011;31474;45.332;10.230;2023-07-02T00:50:21;34.03;;;25.25;;
45764;SDS011;31474;45.332;10.230;2023-07-02T00:52:47;30.40;;;25.85;;
45764;SDS011;31474;45.332;10.230;2023-07-02T00:55:13;29.88;;;23.70;;
45764;SDS011;31474;45.332;10.230;2023-07-02T00:57:39;32.38;;;26.27;;
45764;SDS011;31474;45.332;10.230;2023-07-02T01:00:06;29.88;;;24.75;;
45764;SDS011;31474;45.332;10.230;2023-07-02T01:02:32;32.83;;;25.23;;
45764;SDS011;31474;45.332;10.230;2023-07-02T01:04:58;28.58;;;24.23;;
45764;SDS011;31474;45.332;10.230;2023-07-02T01:07:24;31.27;;;24.65;;
45764;SDS011;31474;45.332;10.230;2023-07-02T01:09:50;29.83;;;24.20;;
45764;SDS011;31474;45.332;10.230;2023-07-02T01:12:16;29.45;;;23.73;;
45764;SDS011;31474;45.332;10.230;2023-07-02T01:14:47;31.98;;;24.77;;
45764;SDS011;31474;45.332;10.230;2023-07-02T01:17:16;28.67;;;23.50;;
45764;SDS011;31474;45.332;10.230;2023-07-02T01:22:18;30.42;;;23.92;;
45764;SDS011;31474;45.332;10.230;2023-07-02T01:24:46;28.25;;;23.23;;
45764;SDS011;31474;45.332;10.230;2023-07-02T01:27:13;28.35;;;23.05;;
45764;SDS011;31474;45.332;10.230;2023-07-02T01:29:40;30.52;;;24.73;;
45764;SDS011;31474;45.332;10.230;2023-07-02T01:32:06;31.65;;;23.00;;
45764;SDS011;31474;45.332;10.230;2023-07-02T01:34:33;27.90;;;22.60;;
45764;SDS011;31474;45.332;10.230;2023-07-02T01:36:59;30.60;;;23.48;;
45764;SDS011;31474;45.332;10.230;2023-07-02T01:39:25;28.42;;;23.38;;
45764;SDS011;31474;45.332;10.230;2023-07-02T01:41:51;30.55;;;23.52;;
45764;SDS011;31474;45.332;10.230;2023-07-02T01:44:19;30.60;;;25.42;;
45764;SDS011;31474;45.332;10.230;2023-07-02T01:46:45;28.55;;;23.77;;
45764;SDS011;31474;45.332;10.230;2023-07-02T01:49:17;31.05;;;24.60;;
45764;SDS011;31474;45.332;10.230;2023-07-02T01:51:44;34.03;;;23.48;;
45764;SDS011;31474;45.332;10.230;2023-07-02T01:54:14;27.48;;;22.70;;
45764;SDS011;31474;45.332;10.230;2023-07-02T01:56:39;26.60;;;21.38;;
45764;SDS011;31474;45.332;10.230;2023-07-02T01:59:05;29.65;;;24.65;;
45764;SDS011;31474;45.332;10.230;2023-07-02T02:01:30;29.63;;;22.38;;
45764;SDS011;31474;45.332;10.230;2023-07-02T02:03:57;30.13;;;23.80;;
45764;SDS011;31474;45.332;10.230;2023-07-02T02:06:23;28.25;;;23.10;;
45764;SDS011;31474;45.332;10.230;2023-07-02T02:08:49;27.52;;;23.58;;
45764;SDS011;31474;45.332;10.230;2023-07-02T02:11:14;29.25;;;23.90;;
45764;SDS011;31474;45.332;10.230;2023-07-02T02:13:40;31.55;;;23.38;;
45764;SDS011;31474;45.332;10.230;2023-07-02T02:16:06;30.75;;;25.15;;
45764;SDS011;31474;45.332;10.230;2023-07-02T02:18:32;30.83;;;24.85;;
45764;SDS011;31474;45.332;10.230;2023-07-02T02:20:57;38.47;;;27.08;;
45764;SDS011;31474;45.332;10.230;2023-07-02T02:23:23;34.15;;;26.80;;
45764;SDS011;31474;45.332;10.230;2023-07-02T02:25:49;35.55;;;26.55;;
45764;SDS011;31474;45.332;10.230;2023-07-02T02:28:14;32.88;;;26.80;;
45764;SDS011;31474;45.332;10.230;2023-07-02T02:30:40;34.97;;;27.33;;
45764;SDS011;31474;45.332;10.230;2023-07-02T02:33:06;35.88;;;26.42;;
45764;SDS011;31474;45.332;10.230;2023-07-02T02:35:31;39.58;;;28.50;;
45764;SDS011;31474;45.332;10.230;2023-07-02T02:37:57;32.35;;;25.98;;
45764;SDS011;31474;45.332;10.230;2023-07-02T02:40:23;35.22;;;25.42;;
45764;SDS011;31474;45.332;10.230;2023-07-02T02:42:48;34.55;;;26.55;;
45764;SDS011;31474;45.332;10.230;2023-07-02T02:45:14;37.55;;;26.10;;
45764;SDS011;31474;45.332;10.230;2023-07-02T02:47:39;33.42;;;25.58;;
45764;SDS011;31474;45.332;10.230;2023-07-02T02:50:05;35.30;;;25.88;;
45764;SDS011;31474;45.332;10.230;2023-07-02T02:52:31;37.67;;;26.60;;
45764;SDS011;31474;45.332;10.230;2023-07-02T02:54:57;34.13;;;25.95;;
45764;SDS011;31474;45.332;10.230;2023-07-02T02:57:23;32.03;;;26.15;;
45764;SDS011;31474;45.332;10.230;2023-07-02T02:59:49;32.50;;;24.63;;
45764;SDS011;31474;45.332;10.230;2023-07-02T03:02:15;31.98;;;24.73;;
45764;SDS011;31474;45.332;10.230;2023-07-02T03:04:40;32.50;;;26.85;;
45764;SDS011;31474;45.332;10.230;2023-07-02T03:07:09;32.28;;;26.63;;
45764;SDS011;31474;45.332;10.230;2023-07-02T03:09:34;32.35;;;26.08;;
45764;SDS011;31474;45.332;10.230;2023-07-02T03:12:00;35.80;;;28.00;;
45764;SDS011;31474;45.332;10.230;2023-07-02T03:14:26;35.75;;;27.75;;
45764;SDS011;31474;45.332;10.230;2023-07-02T03:16:51;38.47;;;28.48;;
45764;SDS011;31474;45.332;10.230;2023-07-02T03:19:17;37.53;;;27.60;;
45764;SDS011;31474;45.332;10.230;2023-07-02T03:21:43;35.60;;;28.77;;
45764;SDS011;31474;45.332;10.230;2023-07-02T03:24:09;40.22;;;29.98;;
45764;SDS011;31474;45.332;10.230;2023-07-02T03:26:38;35.72;;;28.08;;
45764;SDS011;31474;45.332;10.230;2023-07-02T03:29:08;36.15;;;28.35;;
45764;SDS011;31474;45.332;10.230;2023-07-02T03:31:34;36.63;;;28.05;;
45764;SDS011;31474;45.332;10.230;2023-07-02T03:34:02;37.83;;;28.30;;
45764;SDS011;31474;45.332;10.230;2023-07-02T03:36:29;38.55;;;27.30;;
45764;SDS011;31474;45.332;10.230;2023-07-02T03:38:55;37.35;;;25.42;;
45764;SDS011;31474;45.332;10.230;2023-07-02T03:41:20;37.75;;;26.95;;
45764;SDS011;31474;45.332;10.230;2023-07-02T03:43:46;33.13;;;24.95;;
45764;SDS011;31474;45.332;10.230;2023-07-02T03:46:12;34.08;;;25.58;;
45764;SDS011;31474;45.332;10.230;2023-07-02T03:48:39;35.17;;;26.73;;
45764;SDS011;31474;45.332;10.230;2023-07-02T03:51:04;32.10;;;25.25;;
45764;SDS011;31474;45.332;10.230;2023-07-02T03:53:31;39.47;;;27.80;;
45764;SDS011;31474;45.332;10.230;2023-07-02T03:55:56;35.30;;;25.80;;
45764;SDS011;31474;45.332;10.230;2023-07-02T03:58:22;32.42;;;24.38;;
45764;SDS011;31474;45.332;10.230;2023-07-02T04:00:48;35.28;;;25.58;;
45764;SDS011;31474;45.332;10.230;2023-07-02T04:03:16;33.45;;;26.40;;
45764;SDS011;31474;45.332;10.230;2023-07-02T04:05:42;35.08;;;25.10;;
45764;SDS011;31474;45.332;10.230;2023-07-02T04:08:08;33.65;;;24.50;;
45764;SDS011;31474;45.332;10.230;2023-07-02T04:10:34;35.40;;;24.52;;
45764;SDS011;31474;45.332;10.230;2023-07-02T04:13:00;31.00;;;24.52;;
45764;SDS011;31474;45.332;10.230;2023-07-02T04:15:25;32.58;;;25.08;;
45764;SDS011;31474;45.332;10.230;2023-07-02T04:17:51;33.72;;;26.13;;
45764;SDS011;31474;45.332;10.230;2023-07-02T04:20:18;36.95;;;26.38;;
45764;SDS011;31474;45.332;10.230;2023-07-02T04:22:46;36.47;;;24.42;;
45764;SDS011;31474;45.332;10.230;2023-07-02T04:25:13;34.17;;;24.63;;
45764;SDS011;31474;45.332;10.230;2023-07-02T04:27:41;30.50;;;24.10;;
45764;SDS011;31474;45.332;10.230;2023-07-02T04:30:07;37.00;;;25.70;;
45764;SDS011;31474;45.332;10.230;2023-07-02T04:32:37;33.92;;;25.77;;
45764;SDS011;31474;45.332;10.230;2023-07-02T04:35:06;41.40;;;26.98;;
45764;SDS011;31474;45.332;10.230;2023-07-02T04:37:36;38.17;;;25.05;;
45764;SDS011;31474;45.332;10.230;2023-07-02T04:40:01;34.03;;;25.35;;
45764;SDS011;31474;45.332;10.230;2023-07-02T04:45:02;32.00;;;23.50;;
45764;SDS011;31474;45.332;10.230;2023-07-02T04:47:33;35.88;;;25.02;;
45764;SDS011;31474;45.332;10.230;2023-07-02T04:50:01;32.90;;;24.27;;
45764;SDS011;31474;45.332;10.230;2023-07-02T04:52:27;33.35;;;25.17;;
45764;SDS011;31474;45.332;10.230;2023-07-02T04:54:53;32.67;;;24.30;;
45764;SDS011;31474;45.332;10.230;2023-07-02T04:57:20;34.55;;;25.05;;
45764;SDS011;31474;45.332;10.230;2023-07-02T04:59:46;32.83;;;22.77;;
45764;SDS011;31474;45.332;10.230;2023-07-02T05:02:12;34.70;;;25.90;;
45764;SDS011;31474;45.332;10.230;2023-07-02T05:04:38;33.30;;;25.00;;
45764;SDS011;31474;45.332;10.230;2023-07-02T05:07:04;31.27;;;24.10;;
45764;SDS011;31474;45.332;10.230;2023-07-02T05:09:29;31.30;;;21.75;;
45764;SDS011;31474;45.332;10.230;2023-07-02T05:11:55;33.58;;;22.70;;
45764;SDS011;31474;45.332;10.230;2023-07-02T05:14:21;30.98;;;23.77;;
45764;SDS011;31474;45.332;10.230;2023-07-02T05:16:47;27.23;;;22.13;;
45764;SDS011;31474;45.332;10.230;2023-07-02T05:19:13;32.22;;;22.83;;
45764;SDS011;31474;45.332;10.230;2023-07-02T05:21:39;29.30;;;22.42;;
45764;SDS011;31474;45.332;10.230;2023-07-02T05:24:05;27.55;;;20.92;;
45764;SDS011;31474;45.332;10.230;2023-07-02T05:26:31;28.35;;;21.60;;
45764;SDS011;31474;45.332;10.230;2023-07-02T05:28:58;29.77;;;21.83;;
45764;SDS011;31474;45.332;10.230;2023-07-02T05:31:23;31.10;;;21.65;;
45764;SDS011;31474;45.332;10.230;2023-07-02T05:33:49;27.60;;;22.20;;
45764;SDS011;31474;45.332;10.230;2023-07-02T05:36:15;26.67;;;20.33;;
45764;SDS011;31474;45.332;10.230;2023-07-02T05:38:40;31.85;;;21.42;;
45764;SDS011;31474;45.332;10.230;2023-07-02T05:41:06;24.75;;;19.58;;
45764;SDS011;31474;45.332;10.230;2023-07-02T05:43:32;25.42;;;18.50;;
45764;SDS011;31474;45.332;10.230;2023-07-02T05:45:58;24.45;;;19.23;;
45764;SDS011;31474;45.332;10.230;2023-07-02T05:48:27;28.58;;;18.63;;
45764;SDS011;31474;45.332;10.230;2023-07-02T05:50:53;26.48;;;20.80;;
45764;SDS011;31474;45.332;10.230;2023-07-02T05:53:19;23.98;;;18.08;;
45764;SDS011;31474;45.332;10.230;2023-07-02T05:55:45;25.17;;;18.08;;
45764;SDS011;31474;45.332;10.230;2023-07-02T05:58:10;23.92;;;18.83;;
45764;SDS011;31474;45.332;10.230;2023-07-02T06:00:36;24.25;;;18.33;;
45764;SDS011;31474;45.332;10.230;2023-07-02T06:03:02;23.40;;;19.65;;
45764;SDS011;31474;45.332;10.230;2023-07-02T06:05:27;25.73;;;18.65;;
45764;SDS011;31474;45.332;10.230;2023-07-02T06:07:53;25.10;;;19.50;;
45764;SDS011;31474;45.332;10.230;2023-07-02T06:10:19;27.15;;;21.38;;
45764;SDS011;31474;45.332;10.230;2023-07-02T06:12:45;28.45;;;20.75;;
45764;SDS011;31474;45.332;10.230;2023-07-02T06:15:10;23.90;;;19.15;;
45764;SDS011;31474;45.332;10.230;2023-07-02T06:17:36;28.38;;;21.08;;
45764;SDS011;31474;45.332;10.230;2023-07-02T06:20:05;29.35;;;19.90;;
45764;SDS011;31474;45.332;10.230;2023-07-02T06:22:31;22.90;;;18.55;;
45764;SDS011;31474;45.332;10.230;2023-07-02T06:24:57;24.95;;;19.60;;
45764;SDS011;31474;45.332;10.230;2023-07-02T06:27:22;26.55;;;20.40;;
45764;SDS011;31474;45.332;10.230;2023-07-02T06:29:48;29.88;;;21.58;;
45764;SDS011;31474;45.332;10.230;2023-07-02T06:32:15;25.30;;;20.88;;
45764;SDS011;31474;45.332;10.230;2023-07-02T06:34:41;28.08;;;19.98;;
45764;SDS011;31474;45.332;10.230;2023-07-02T06:37:06;25.00;;;18.88;;
45764;SDS011;31474;45.332;10.230;2023-07-02T06:39:32;29.65;;;20.33;;
45764;SDS011;31474;45.332;10.230;2023-07-02T06:41:58;26.35;;;19.88;;
45764;SDS011;31474;45.332;10.230;2023-07-02T06:44:23;28.88;;;19.50;;
45764;SDS011;31474;45.332;10.230;2023-07-02T06:46:49;24.20;;;18.92;;
45764;SDS011;31474;45.332;10.230;2023-07-02T06:49:15;28.80;;;20.13;;
45764;SDS011;31474;45.332;10.230;2023-07-02T06:51:40;26.27;;;18.88;;
45764;SDS011;31474;45.332;10.230;2023-07-02T06:54:06;27.13;;;20.02;;
45764;SDS011;31474;45.332;10.230;2023-07-02T06:56:32;24.70;;;18.95;;
45764;SDS011;31474;45.332;10.230;2023-07-02T06:58:59;26.83;;;19.70;;
45764;SDS011;31474;45.332;10.230;2023-07-02T07:01:25;23.58;;;17.85;;
45764;SDS011;31474;45.332;10.230;2023-07-02T07:03:50;24.08;;;19.20;;
45764;SDS011;31474;45.332;10.230;2023-07-02T07:06:16;25.98;;;18.85;;
45764;SDS011;31474;45.332;10.230;2023-07-02T07:08:42;27.15;;;20.25;;
45764;SDS011;31474;45.332;10.230;2023-07-02T07:11:08;33.70;;;19.25;;
45764;SDS011;31474;45.332;10.230;2023-07-02T07:13:33;31.67;;;19.55;;
45764;SDS011;31474;45.332;10.230;2023-07-02T07:15:59;23.92;;;18.42;;
45764;SDS011;31474;45.332;10.230;2023-07-02T07:18:25;25.05;;;19.35;;
45764;SDS011;31474;45.332;10.230;2023-07-02T07:20:51;27.38;;;18.98;;
45764;SDS011;31474;45.332;10.230;2023-07-02T07:23:17;29.42;;;19.60;;
45764;SDS011;31474;45.332;10.230;2023-07-02T07:25:44;29.45;;;17.95;;
45764;SDS011;31474;45.332;10.230;2023-07-02T07:28:10;23.42;;;17.92;;
45764;SDS011;31474;45.332;10.230;2023-07-02T07:30:43;24.02;;;17.42;;
45764;SDS011;31474;45.332;10.230;2023-07-02T07:33:09;24.27;;;18.42;;
45764;SDS011;31474;45.332;10.230;2023-07-02T07:35:35;24.70;;;18.05;;
45764;SDS011;31474;45.332;10.230;2023-07-02T07:38:02;24.27;;;19.10;;
45764;SDS011;31474;45.332;10.230;2023-07-02T07:40:28;26.65;;;17.98;;
45764;SDS011;31474;45.332;10.230;2023-07-02T07:42:54;26.48;;;19.23;;
45764;SDS011;31474;45.332;10.230;2023-07-02T07:45:19;26.05;;;19.85;;
45764;SDS011;31474;45.332;10.230;2023-07-02T07:47:45;26.92;;;19.02;;
45764;SDS011;31474;45.332;10.230;2023-07-02T07:50:11;25.63;;;19.27;;
45764;SDS011;31474;45.332;10.230;2023-07-02T07:52:37;24.65;;;18.55;;
45764;SDS011;31474;45.332;10.230;2023-07-02T07:55:07;21.73;;;17.65;;
45764;SDS011;31474;45.332;10.230;2023-07-02T07:57:36;25.60;;;18.13;;
45764;SDS011;31474;45.332;10.230;2023-07-02T08:00:05;28.58;;;20.13;;
45764;SDS011;31474;45.332;10.230;2023-07-02T08:05:00;23.33;;;17.58;;
45764;SDS011;31474;45.332;10.230;2023-07-02T08:07:27;23.45;;;18.10;;
45764;SDS011;31474;45.332;10.230;2023-07-02T08:09:53;24.33;;;19.63;;
45764;SDS011;31474;45.332;10.230;2023-07-02T08:12:19;25.73;;;18.25;;
45764;SDS011;31474;45.332;10.230;2023-07-02T08:14:44;26.15;;;19.05;;
45764;SDS011;31474;45.332;10.230;2023-07-02T08:17:10;24.15;;;19.35;;
45764;SDS011;31474;45.332;10.230;2023-07-02T08:19:36;23.98;;;18.23;;
45764;SDS011;31474;45.332;10.230;2023-07-02T08:22:01;23.48;;;17.65;;
45764;SDS011;31474;45.332;10.230;2023-07-02T08:24:28;26.17;;;20.27;;
45764;SDS011;31474;45.332;10.230;2023-07-02T08:26:55;25.45;;;18.67;;
45764;SDS011;31474;45.332;10.230;2023-07-02T08:29:21;25.70;;;18.05;;
45764;SDS011;31474;45.332;10.230;2023-07-02T08:31:47;22.90;;;18.50;;
45764;SDS011;31474;45.332;10.230;2023-07-02T08:34:12;23.98;;;19.75;;
45764;SDS011;31474;45.332;10.230;2023-07-02T08:36:38;24.67;;;18.50;;
45764;SDS011;31474;45.332;10.230;2023-07-02T08:39:04;24.85;;;16.50;;
45764;SDS011;31474;45.332;10.230;2023-07-02T08:41:30;25.02;;;18.17;;
45764;SDS011;31474;45.332;10.230;2023-07-02T08:43:56;25.90;;;19.48;;
45764;SDS011;31474;45.332;10.230;2023-07-02T08:46:24;25.13;;;19.48;;
45764;SDS011;31474;45.332;10.230;2023-07-02T08:48:50;24.33;;;18.33;;
45764;SDS011;31474;45.332;10.230;2023-07-02T08:51:16;24.15;;;19.30;;
45764;SDS011;31474;45.332;10.230;2023-07-02T08:53:42;25.40;;;19.83;;
45764;SDS011;31474;45.332;10.230;2023-07-02T08:56:07;25.98;;;18.50;;
45764;SDS011;31474;45.332;10.230;2023-07-02T08:58:33;28.60;;;19.20;;
45764;SDS011;31474;45.332;10.230;2023-07-02T09:01:09;26.30;;;20.00;;
45764;SDS011;31474;45.332;10.230;2023-07-02T09:03:36;27.83;;;20.95;;
45764;SDS011;31474;45.332;10.230;2023-07-02T09:06:03;29.40;;;18.63;;
45764;SDS011;31474;45.332;10.230;2023-07-02T09:08:32;23.67;;;18.38;;
45764;SDS011;31474;45.332;10.230;2023-07-02T09:11:05;23.20;;;19.52;;
45764;SDS011;31474;45.332;10.230;2023-07-02T09:13:43;24.63;;;18.70;;
45764;SDS011;31474;45.332;10.230;2023-07-02T09:16:25;22.58;;;17.30;;
45764;SDS011;31474;45.332;10.230;2023-07-02T09:18:59;24.42;;;18.50;;
45764;SDS011;31474;45.332;10.230;2023-07-02T09:24:13;25.95;;;19.40;;
45764;SDS011;31474;45.332;10.230;2023-07-02T09:26:46;19.88;;;17.00;;
45764;SDS011;31474;45.332;10.230;2023-07-02T09:29:16;23.45;;;18.08;;
45764;SDS011;31474;45.332;10.230;2023-07-02T09:31:49;30.75;;;22.60;;
45764;SDS011;31474;45.332;10.230;2023-07-02T09:34:15;22.92;;;18.40;;
45764;SDS011;31474;45.332;10.230;2023-07-02T09:36:42;22.00;;;18.13;;
45764;SDS011;31474;45.332;10.230;2023-07-02T09:39:11;19.33;;;15.95;;
45764;SDS011;31474;45.332;10.230;2023-07-02T09:41:39;25.58;;;18.48;;
45764;SDS011;31474;45.332;10.230;2023-07-02T09:44:07;24.90;;;19.05;;
45764;SDS011;31474;45.332;10.230;2023-07-02T09:46:37;21.27;;;16.05;;
45764;SDS011;31474;45.332;10.230;2023-07-02T09:49:08;23.73;;;17.77;;
45764;SDS011;31474;45.332;10.230;2023-07-02T09:51:38;19.15;;;15.27;;
45764;SDS011;31474;45.332;10.230;2023-07-02T09:54:05;22.52;;;17.25;;
45764;SDS011;31474;45.332;10.230;2023-07-02T09:56:31;23.48;;;17.20;;
45764;SDS011;31474;45.332;10.230;2023-07-02T09:58:56;21.33;;;16.75;;
45764;SDS011;31474;45.332;10.230;2023-07-02T10:01:22;16.88;;;15.10;;
45764;SDS011;31474;45.332;10.230;2023-07-02T10:03:48;23.17;;;16.80;;
45764;SDS011;31474;45.332;10.230;2023-07-02T10:06:14;21.10;;;17.15;;
45764;SDS011;31474;45.332;10.230;2023-07-02T10:08:39;23.85;;;17.02;;
45764;SDS011;31474;45.332;10.230;2023-07-02T10:11:09;21.20;;;15.68;;
45764;SDS011;31474;45.332;10.230;2023-07-02T10:13:38;20.98;;;16.38;;
45764;SDS011;31474;45.332;10.230;2023-07-02T10:16:05;19.80;;;16.23;;
45764;SDS011;31474;45.332;10.230;2023-07-02T10:18:31;21.90;;;16.48;;
45764;SDS011;31474;45.332;10.230;2023-07-02T10:20:57;18.35;;;15.05;;
45764;SDS011;31474;45.332;10.230;2023-07-02T10:23:35;19.13;;;15.50;;
45764;SDS011;31474;45.332;10.230;2023-07-02T10:26:13;24.52;;;14.38;;
45764;SDS011;31474;45.332;10.230;2023-07-02T10:28:39;19.20;;;15.35;;
45764;SDS011;31474;45.332;10.230;2023-07-02T10:31:16;17.25;;;14.23;;
45764;SDS011;31474;45.332;10.230;2023-07-02T10:33:44;17.52;;;13.32;;
45764;SDS011;31474;45.332;10.230;2023-07-02T10:36:17;16.83;;;13.02;;
45764;SDS011;31474;45.332;10.230;2023-07-02T10:38:48;13.68;;;10.65;;
45764;SDS011;31474;45.332;10.230;2023-07-02T10:41:27;18.92;;;14.07;;
45764;SDS011;31474;45.332;10.230;2023-07-02T10:43:54;19.55;;;15.45;;
45764;SDS011;31474;45.332;10.230;2023-07-02T10:46:30;16.20;;;13.20;;
45764;SDS011;31474;45.332;10.230;2023-07-02T10:48:55;17.33;;;13.30;;
45764;SDS011;31474;45.332;10.230;2023-07-02T10:51:22;20.27;;;15.20;;
45764;SDS011;31474;45.332;10.230;2023-07-02T10:54:01;19.73;;;15.13;;
45764;SDS011;31474;45.332;10.230;2023-07-02T10:56:29;18.52;;;14.70;;
45764;SDS011;31474;45.332;10.230;2023-07-02T10:58:56;19.30;;;15.45;;
45764;SDS011;31474;45.332;10.230;2023-07-02T11:01:29;21.67;;;15.20;;
45764;SDS011;31474;45.332;10.230;2023-07-02T11:03:56;19.48;;;15.18;;
45764;SDS011;31474;45.332;10.230;2023-07-02T11:06:24;17.00;;;13.75;;
45764;SDS011;31474;45.332;10.230;2023-07-02T11:08:51;23.42;;;15.13;;
45764;SDS011;31474;45.332;10.230;2023-07-02T11:11:17;17.85;;;15.02;;
45764;SDS011;31474;45.332;10.230;2023-07-02T11:13:46;21.13;;;16.05;;
45764;SDS011;31474;45.332;10.230;2023-07-02T11:16:25;21.02;;;14.68;;
45764;SDS011;31474;45.332;10.230;2023-07-02T11:18:53;19.40;;;14.85;;
45764;SDS011;31474;45.332;10.230;2023-07-02T11:21:33;19.27;;;15.90;;
45764;SDS011;31474;45.332;10.230;2023-07-02T11:24:03;18.45;;;14.40;;
45764;SDS011;31474;45.332;10.230;2023-07-02T11:26:36;17.58;;;13.90;;
45764;SDS011;31474;45.332;10.230;2023-07-02T11:29:02;21.30;;;15.90;;
45764;SDS011;31474;45.332;10.230;2023-07-02T11:31:28;19.55;;;14.38;;
45764;SDS011;31474;45.332;10.230;2023-07-02T11:33:54;17.40;;;14.32;;
45764;SDS011;31474;45.332;10.230;2023-07-02T11:36:20;17.23;;;13.45;;
45764;SDS011;31474;45.332;10.230;2023-07-02T11:38:48;18.98;;;14.23;;
45764;SDS011;31474;45.332;10.230;2023-07-02T11:41:15;19.15;;;14.40;;
45764;SDS011;31474;45.332;10.230;2023-07-02T11:43:41;17.02;;;13.63;;
45764;SDS011;31474;45.332;10.230;2023-07-02T11:46:07;17.90;;;12.93;;
45764;SDS011;31474;45.332;10.230;2023-07-02T11:48:32;17.58;;;13.23;;
45764;SDS011;31474;45.332;10.230;2023-07-02T11:50:58;16.92;;;13.75;;
45764;SDS011;31474;45.332;10.230;2023-07-02T11:53:23;16.95;;;13.43;;
45764;SDS011;31474;45.332;10.230;2023-07-02T11:55:50;14.95;;;12.00;;
45764;SDS011;31474;45.332;10.230;2023-07-02T11:58:15;16.85;;;12.35;;
45764;SDS011;31474;45.332;10.230;2023-07-02T12:00:41;14.57;;;12.63;;
45764;SDS011;31474;45.332;10.230;2023-07-02T12:03:06;17.52;;;11.23;;
45764;SDS011;31474;45.332;10.230;2023-07-02T12:05:33;13.07;;;11.18;;
45764;SDS011;31474;45.332;10.230;2023-07-02T12:07:58;14.30;;;11.68;;
45764;SDS011;31474;45.332;10.230;2023-07-02T12:10:24;12.38;;;10.35;;
45764;SDS011;31474;45.332;10.230;2023-07-02T12:12:50;10.45;;;9.15;;
45764;SDS011;31474;45.332;10.230;2023-07-02T12:15:15;11.18;;;9.52;;
45764;SDS011;31474;45.332;10.230;2023-07-02T12:17:41;10.77;;;9.63;;
45764;SDS011;31474;45.332;10.230;2023-07-02T12:20:07;12.68;;;10.57;;
45764;SDS011;31474;45.332;10.230;2023-07-02T12:22:33;14.82;;;11.27;;
45764;SDS011;31474;45.332;10.230;2023-07-02T12:24:59;17.15;;;11.50;;
45764;SDS011;31474;45.332;10.230;2023-07-02T12:27:25;17.90;;;9.88;;
45764;SDS011;31474;45.332;10.230;2023-07-02T12:29:52;10.52;;;9.15;;
45764;SDS011;31474;45.332;10.230;2023-07-02T12:32:18;10.55;;;8.45;;
45764;SDS011;31474;45.332;10.230;2023-07-02T12:34:43;12.18;;;8.38;;
45764;SDS011;31474;45.332;10.230;2023-07-02T12:37:09;11.07;;;9.65;;
45764;SDS011;31474;45.332;10.230;2023-07-02T12:39:35;11.20;;;9.32;;
45764;SDS011;31474;45.332;10.230;2023-07-02T12:42:00;15.93;;;9.75;;
45764;SDS011;31474;45.332;10.230;2023-07-02T12:44:26;11.82;;;8.23;;
45764;SDS011;31474;45.332;10.230;2023-07-02T12:46:52;11.80;;;8.82;;
45764;SDS011;31474;45.332;10.230;2023-07-02T12:49:17;10.57;;;8.73;;
45764;SDS011;31474;45.332;10.230;2023-07-02T12:51:43;10.93;;;9.38;;
45764;SDS011;31474;45.332;10.230;2023-07-02T12:54:08;10.55;;;8.70;;
45764;SDS011;31474;45.332;10.230;2023-07-02T12:56:34;9.75;;;7.90;;
45764;SDS011;31474;45.332;10.230;2023-07-02T12:59:01;11.75;;;7.45;;
45764;SDS011;31474;45.332;10.230;2023-07-02T13:01:27;8.13;;;7.05;;
45764;SDS011;31474;45.332;10.230;2023-07-02T13:03:53;7.53;;;6.25;;
45764;SDS011;31474;45.332;10.230;2023-07-02T13:06:19;7.18;;;6.47;;
45764;SDS011;31474;45.332;10.230;2023-07-02T13:08:44;8.43;;;6.53;;
45764;SDS011;31474;45.332;10.230;2023-07-02T13:11:10;8.93;;;7.93;;
45764;SDS011;31474;45.332;10.230;2023-07-02T13:13:36;7.40;;;6.70;;
45764;SDS011;31474;45.332;10.230;2023-07-02T13:16:02;10.60;;;7.68;;
45764;SDS011;31474;45.332;10.230;2023-07-02T13:18:28;8.05;;;6.78;;
45764;SDS011;31474;45.332;10.230;2023-07-02T13:20:53;8.88;;;6.93;;
45764;SDS011;31474;45.332;10.230;2023-07-02T13:23:19;8.43;;;7.03;;
45764;SDS011;31474;45.332;10.230;2023-07-02T13:25:45;10.05;;;7.35;;
45764;SDS011;31474;45.332;10.230;2023-07-02T13:28:11;7.60;;;5.45;;
45764;SDS011;31474;45.332;10.230;2023-07-02T13:30:36;6.10;;;5.28;;
45764;SDS011;31474;45.332;10.230;2023-07-02T13:33:02;6.95;;;5.53;;
45764;SDS011;31474;45.332;10.230;2023-07-02T13:35:28;6.25;;;5.03;;
45764;SDS011;31474;45.332;10.230;2023-07-02T13:37:54;7.68;;;5.90;;
45764;SDS011;31474;45.332;10.230;2023-07-02T13:40:20;7.15;;;6.43;;
45764;SDS011;31474;45.332;10.230;2023-07-02T13:42:45;7.18;;;6.20;;
45764;SDS011;31474;45.332;10.230;2023-07-02T13:45:11;6.15;;;5.55;;
45764;SDS011;31474;45.332;10.230;2023-07-02T13:47:37;6.75;;;6.05;;
45764;SDS011;31474;45.332;10.230;2023-07-02T13:50:03;6.15;;;5.40;;
45764;SDS011;31474;45.332;10.230;2023-07-02T13:52:29;8.48;;;5.53;;
45764;SDS011;31474;45.332;10.230;2023-07-02T13:54:55;7.05;;;5.40;;
45764;SDS011;31474;45.332;10.230;2023-07-02T13:57:21;7.13;;;5.60;;
45764;SDS011;31474;45.332;10.230;2023-07-02T13:59:47;7.97;;;5.78;;
45764;SDS011;31474;45.332;10.230;2023-07-02T14:02:13;8.25;;;6.35;;
45764;SDS011;31474;45.332;10.230;2023-07-02T14:04:38;6.97;;;5.60;;
45764;SDS011;31474;45.332;10.230;2023-07-02T14:07:04;6.53;;;5.22;;
45764;SDS011;31474;45.332;10.230;2023-07-02T14:09:30;9.13;;;5.18;;
45764;SDS011;31474;45.332;10.230;2023-07-02T14:11:56;8.18;;;6.18;;
45764;SDS011;31474;45.332;10.230;2023-07-02T14:14:22;5.47;;;4.65;;
45764;SDS011;31474;45.332;10.230;2023-07-02T14:16:47;5.88;;;5.35;;
45764;SDS011;31474;45.332;10.230;2023-07-02T14:19:13;6.40;;;5.80;;